sensor_id;sensor_type;location;lat;lon;timestamp;P1;durP1;ratioP1;P2;durP2;ratioP2
21825;SDS011;11075;47.944;11.776;2023-08-12T00:00:21;6.78;;;4.57;;
21825;SDS011;11075;47.944;11.776;2023-08-12T00:02:48;7.30;;;4.47;;
21825;SDS011;11075;47.944;11.776;2023-08-12T00:05:15;8.80;;;4.65;;
21825;SDS011;11075;47.944;11.776;2023-08-12T00:07:42;4.80;;;4.25;;
21825;SDS011;11075;47.944;11.776;2023-08-12T00:10:09;7.15;;;4.22;;
21825;SDS011;11075;47.944;11.776;2023-08-12T00:12:38;6.07;;;4.25;;
21825;SDS011;11075;47.944;11.776;2023-08-12T00:15:06;4.45;;;4.05;;
21825;SDS011;11075;47.944;11.776;2023-08-12T00:17:34;10.63;;;4.60;;
21825;SDS011;11075;47.944;11.776;2023-08-12T00:20:08;6.03;;;4.55;;
21825;SDS011;11075;47.944;11.776;2023-08-12T00:22:38;8.10;;;4.35;;
21825;SDS011;11075;47.944;11.776;2023-08-12T00:25:06;6.47;;;4.55;;
21825;SDS011;11075;47.944;11.776;2023-08-12T00:27:33;7.55;;;4.70;;
21825;SDS011;11075;47.944;11.776;2023-08-12T00:30:00;7.10;;;4.57;;
21825;SDS011;11075;47.944;11.776;2023-08-12T00:32:28;7.97;;;4.82;;
21825;SDS011;11075;47.944;11.776;2023-08-12T00:34:56;10.50;;;5.00;;
21825;SDS011;11075;47.944;11.776;2023-08-12T00:37:22;7.00;;;4.15;;
21825;SDS011;11075;47.944;11.776;2023-08-12T00:39:49;5.75;;;4.15;;
21825;SDS011;11075;47.944;11.776;2023-08-12T00:42:16;7.13;;;4.38;;
21825;SDS011;11075;47.944;11.776;2023-08-12T00:44:44;8.68;;;3.92;;
21825;SDS011;11075;47.944;11.776;2023-08-12T00:47:11;5.25;;;4.05;;
21825;SDS011;11075;47.944;11.776;2023-08-12T00:49:38;5.25;;;3.80;;
21825;SDS011;11075;47.944;11.776;2023-08-12T00:52:07;5.00;;;4.10;;
21825;SDS011;11075;47.944;11.776;2023-08-12T00:54:34;6.25;;;4.20;;
21825;SDS011;11075;47.944;11.776;2023-08-12T00:57:01;7.10;;;4.10;;
21825;SDS011;11075;47.944;11.776;2023-08-12T00:59:27;5.25;;;4.50;;
21825;SDS011;11075;47.944;11.776;2023-08-12T01:01:55;9.32;;;5.00;;
21825;SDS011;11075;47.944;11.776;2023-08-12T01:04:22;5.72;;;4.00;;
21825;SDS011;11075;47.944;11.776;2023-08-12T01:06:49;4.45;;;4.05;;
21825;SDS011;11075;47.944;11.776;2023-08-12T01:09:16;4.97;;;4.00;;
21825;SDS011;11075;47.944;11.776;2023-08-12T01:17:11;6.80;;;4.63;;
21825;SDS011;11075;47.944;11.776;2023-08-12T01:19:41;15.85;;;5.53;;
21825;SDS011;11075;47.944;11.776;2023-08-12T01:22:10;6.60;;;4.40;;
21825;SDS011;11075;47.944;11.776;2023-08-12T01:24:41;6.30;;;3.85;;
21825;SDS011;11075;47.944;11.776;2023-08-12T01:27:10;8.00;;;4.57;;
21825;SDS011;11075;47.944;11.776;2023-08-12T01:29:43;5.28;;;3.88;;
21825;SDS011;11075;47.944;11.776;2023-08-12T01:37:33;5.00;;;4.32;;
21825;SDS011;11075;47.944;11.776;2023-08-12T01:40:03;7.20;;;4.13;;
21825;SDS011;11075;47.944;11.776;2023-08-12T01:42:34;7.75;;;4.97;;
21825;SDS011;11075;47.944;11.776;2023-08-12T01:45:03;7.80;;;4.55;;
21825;SDS011;11075;47.944;11.776;2023-08-12T01:47:30;7.43;;;4.90;;
21825;SDS011;11075;47.944;11.776;2023-08-12T01:49:58;6.60;;;4.35;;
21825;SDS011;11075;47.944;11.776;2023-08-12T01:52:25;6.22;;;4.47;;
21825;SDS011;11075;47.944;11.776;2023-08-12T01:54:53;5.57;;;4.18;;
21825;SDS011;11075;47.944;11.776;2023-08-12T01:57:20;7.80;;;4.05;;
21825;SDS011;11075;47.944;11.776;2023-08-12T01:59:47;5.20;;;4.13;;
21825;SDS011;11075;47.944;11.776;2023-08-12T02:02:16;6.47;;;4.20;;
21825;SDS011;11075;47.944;11.776;2023-08-12T02:04:43;7.35;;;4.25;;
21825;SDS011;11075;47.944;11.776;2023-08-12T02:07:11;8.82;;;4.43;;
21825;SDS011;11075;47.944;11.776;2023-08-12T02:09:38;5.00;;;3.80;;
21825;SDS011;11075;47.944;11.776;2023-08-12T02:12:05;7.18;;;4.43;;
21825;SDS011;11075;47.944;11.776;2023-08-12T02:14:32;6.53;;;4.60;;
21825;SDS011;11075;47.944;11.776;2023-08-12T02:16:59;5.15;;;4.65;;
21825;SDS011;11075;47.944;11.776;2023-08-12T02:19:26;8.23;;;4.70;;
21825;SDS011;11075;47.944;11.776;2023-08-12T02:21:53;5.32;;;4.70;;
21825;SDS011;11075;47.944;11.776;2023-08-12T02:24:20;10.15;;;4.68;;
21825;SDS011;11075;47.944;11.776;2023-08-12T02:26:46;7.53;;;4.57;;
21825;SDS011;11075;47.944;11.776;2023-08-12T02:29:13;9.40;;;4.82;;
21825;SDS011;11075;47.944;11.776;2023-08-12T02:31:40;7.30;;;4.10;;
21825;SDS011;11075;47.944;11.776;2023-08-12T02:34:07;6.85;;;4.40;;
21825;SDS011;11075;47.944;11.776;2023-08-12T02:36:34;7.63;;;4.18;;
21825;SDS011;11075;47.944;11.776;2023-08-12T02:39:01;6.00;;;4.57;;
21825;SDS011;11075;47.944;11.776;2023-08-12T02:41:29;7.25;;;4.35;;
21825;SDS011;11075;47.944;11.776;2023-08-12T02:43:56;8.68;;;4.60;;
21825;SDS011;11075;47.944;11.776;2023-08-12T02:46:23;7.18;;;4.72;;
21825;SDS011;11075;47.944;11.776;2023-08-12T02:48:52;5.38;;;3.90;;
21825;SDS011;11075;47.944;11.776;2023-08-12T02:51:18;10.52;;;4.05;;
21825;SDS011;11075;47.944;11.776;2023-08-12T02:53:45;7.78;;;4.32;;
21825;SDS011;11075;47.944;11.776;2023-08-12T02:56:12;4.75;;;4.35;;
21825;SDS011;11075;47.944;11.776;2023-08-12T02:58:39;5.03;;;4.45;;
21825;SDS011;11075;47.944;11.776;2023-08-12T03:01:06;5.53;;;4.72;;
21825;SDS011;11075;47.944;11.776;2023-08-12T03:03:33;9.13;;;4.47;;
21825;SDS011;11075;47.944;11.776;2023-08-12T03:06:00;5.00;;;4.50;;
21825;SDS011;11075;47.944;11.776;2023-08-12T03:08:28;6.35;;;4.00;;
21825;SDS011;11075;47.944;11.776;2023-08-12T03:10:59;5.78;;;4.82;;
21825;SDS011;11075;47.944;11.776;2023-08-12T03:13:27;8.32;;;4.50;;
21825;SDS011;11075;47.944;11.776;2023-08-12T03:15:55;4.95;;;3.72;;
21825;SDS011;11075;47.944;11.776;2023-08-12T03:18:22;5.05;;;4.05;;
21825;SDS011;11075;47.944;11.776;2023-08-12T03:20:49;6.13;;;4.05;;
21825;SDS011;11075;47.944;11.776;2023-08-12T03:23:17;6.45;;;4.18;;
21825;SDS011;11075;47.944;11.776;2023-08-12T03:25:44;9.27;;;4.57;;
21825;SDS011;11075;47.944;11.776;2023-08-12T03:28:14;5.97;;;4.65;;
21825;SDS011;11075;47.944;11.776;2023-08-12T03:30:41;6.22;;;4.82;;
21825;SDS011;11075;47.944;11.776;2023-08-12T03:33:09;13.48;;;4.82;;
21825;SDS011;11075;47.944;11.776;2023-08-12T03:35:36;5.70;;;4.78;;
21825;SDS011;11075;47.944;11.776;2023-08-12T03:38:03;6.25;;;4.60;;
21825;SDS011;11075;47.944;11.776;2023-08-12T03:40:31;9.15;;;4.82;;
21825;SDS011;11075;47.944;11.776;2023-08-12T03:42:58;5.50;;;4.10;;
21825;SDS011;11075;47.944;11.776;2023-08-12T03:45:25;6.68;;;4.40;;
21825;SDS011;11075;47.944;11.776;2023-08-12T03:47:52;10.32;;;4.88;;
21825;SDS011;11075;47.944;11.776;2023-08-12T03:50:19;7.78;;;4.75;;
21825;SDS011;11075;47.944;11.776;2023-08-12T03:52:46;5.93;;;4.25;;
21825;SDS011;11075;47.944;11.776;2023-08-12T03:55:13;5.90;;;4.05;;
21825;SDS011;11075;47.944;11.776;2023-08-12T03:57:40;9.30;;;3.60;;
21825;SDS011;11075;47.944;11.776;2023-08-12T04:00:08;6.72;;;4.88;;
21825;SDS011;11075;47.944;11.776;2023-08-12T04:02:39;6.68;;;4.50;;
21825;SDS011;11075;47.944;11.776;2023-08-12T04:05:07;6.82;;;3.90;;
21825;SDS011;11075;47.944;11.776;2023-08-12T04:07:35;5.32;;;4.43;;
21825;SDS011;11075;47.944;11.776;2023-08-12T04:10:03;5.90;;;4.45;;
21825;SDS011;11075;47.944;11.776;2023-08-12T04:12:30;7.10;;;3.50;;
21825;SDS011;11075;47.944;11.776;2023-08-12T04:14:57;4.70;;;4.22;;
21825;SDS011;11075;47.944;11.776;2023-08-12T04:17:23;9.25;;;4.25;;
21825;SDS011;11075;47.944;11.776;2023-08-12T04:19:50;5.00;;;3.92;;
21825;SDS011;11075;47.944;11.776;2023-08-12T04:22:18;5.97;;;4.47;;
21825;SDS011;11075;47.944;11.776;2023-08-12T04:24:44;6.20;;;4.43;;
21825;SDS011;11075;47.944;11.776;2023-08-12T04:27:12;5.00;;;4.50;;
21825;SDS011;11075;47.944;11.776;2023-08-12T04:29:39;9.23;;;4.95;;
21825;SDS011;11075;47.944;11.776;2023-08-12T04:32:06;8.82;;;5.50;;
21825;SDS011;11075;47.944;11.776;2023-08-12T04:34:33;6.93;;;5.47;;
21825;SDS011;11075;47.944;11.776;2023-08-12T04:37:02;9.60;;;4.50;;
21825;SDS011;11075;47.944;11.776;2023-08-12T04:39:29;4.40;;;3.97;;
21825;SDS011;11075;47.944;11.776;2023-08-12T04:41:59;5.47;;;3.90;;
21825;SDS011;11075;47.944;11.776;2023-08-12T04:44:26;6.57;;;4.22;;
21825;SDS011;11075;47.944;11.776;2023-08-12T04:46:53;7.15;;;4.70;;
21825;SDS011;11075;47.944;11.776;2023-08-12T04:49:20;8.65;;;4.78;;
21825;SDS011;11075;47.944;11.776;2023-08-12T04:51:47;8.65;;;6.93;;
21825;SDS011;11075;47.944;11.776;2023-08-12T04:54:14;11.13;;;7.35;;
21825;SDS011;11075;47.944;11.776;2023-08-12T04:56:41;8.90;;;6.47;;
21825;SDS011;11075;47.944;11.776;2023-08-12T04:59:09;8.93;;;5.72;;
21825;SDS011;11075;47.944;11.776;2023-08-12T05:01:37;11.30;;;4.95;;
21825;SDS011;11075;47.944;11.776;2023-08-12T05:04:21;5.55;;;4.40;;
21825;SDS011;11075;47.944;11.776;2023-08-12T05:06:47;6.38;;;4.57;;
21825;SDS011;11075;47.944;11.776;2023-08-12T05:09:14;8.77;;;4.75;;
21825;SDS011;11075;47.944;11.776;2023-08-12T05:11:42;4.40;;;4.00;;
21825;SDS011;11075;47.944;11.776;2023-08-12T05:14:08;7.78;;;4.30;;
21825;SDS011;11075;47.944;11.776;2023-08-12T05:16:35;4.72;;;4.20;;
21825;SDS011;11075;47.944;11.776;2023-08-12T05:19:02;5.43;;;4.50;;
21825;SDS011;11075;47.944;11.776;2023-08-12T05:21:29;5.78;;;4.15;;
21825;SDS011;11075;47.944;11.776;2023-08-12T05:23:57;6.85;;;4.88;;
21825;SDS011;11075;47.944;11.776;2023-08-12T05:26:23;5.95;;;5.00;;
21825;SDS011;11075;47.944;11.776;2023-08-12T05:28:50;6.68;;;5.43;;
21825;SDS011;11075;47.944;11.776;2023-08-12T05:31:17;5.25;;;4.75;;
21825;SDS011;11075;47.944;11.776;2023-08-12T05:33:44;12.05;;;4.65;;
21825;SDS011;11075;47.944;11.776;2023-08-12T05:36:11;10.63;;;5.18;;
21825;SDS011;11075;47.944;11.776;2023-08-12T05:38:38;7.30;;;4.53;;
21825;SDS011;11075;47.944;11.776;2023-08-12T05:41:04;8.23;;;4.90;;
21825;SDS011;11075;47.944;11.776;2023-08-12T05:43:33;5.30;;;4.72;;
21825;SDS011;11075;47.944;11.776;2023-08-12T05:46:00;11.32;;;4.78;;
21825;SDS011;11075;47.944;11.776;2023-08-12T05:48:27;6.80;;;4.43;;
21825;SDS011;11075;47.944;11.776;2023-08-12T05:50:54;5.38;;;4.43;;
21825;SDS011;11075;47.944;11.776;2023-08-12T05:53:21;9.32;;;4.15;;
21825;SDS011;11075;47.944;11.776;2023-08-12T05:55:49;5.47;;;4.75;;
21825;SDS011;11075;47.944;11.776;2023-08-12T05:58:16;8.88;;;4.43;;
21825;SDS011;11075;47.944;11.776;2023-08-12T06:00:43;6.07;;;4.35;;
21825;SDS011;11075;47.944;11.776;2023-08-12T06:03:12;7.05;;;4.28;;
21825;SDS011;11075;47.944;11.776;2023-08-12T06:05:40;16.17;;;4.85;;
21825;SDS011;11075;47.944;11.776;2023-08-12T06:08:07;6.72;;;4.30;;
21825;SDS011;11075;47.944;11.776;2023-08-12T06:10:34;4.38;;;3.70;;
21825;SDS011;11075;47.944;11.776;2023-08-12T06:13:05;5.93;;;4.03;;
21825;SDS011;11075;47.944;11.776;2023-08-12T06:15:32;3.95;;;3.60;;
21825;SDS011;11075;47.944;11.776;2023-08-12T06:18:00;3.58;;;3.22;;
21825;SDS011;11075;47.944;11.776;2023-08-12T06:20:28;3.88;;;3.50;;
21825;SDS011;11075;47.944;11.776;2023-08-12T06:22:55;3.60;;;3.30;;
21825;SDS011;11075;47.944;11.776;2023-08-12T06:25:22;5.63;;;3.58;;
21825;SDS011;11075;47.944;11.776;2023-08-12T06:27:49;3.75;;;3.05;;
21825;SDS011;11075;47.944;11.776;2023-08-12T06:30:16;3.55;;;3.15;;
21825;SDS011;11075;47.944;11.776;2023-08-12T06:32:43;3.10;;;2.80;;
21825;SDS011;11075;47.944;11.776;2023-08-12T06:35:10;3.35;;;2.70;;
21825;SDS011;11075;47.944;11.776;2023-08-12T06:37:37;3.38;;;3.05;;
21825;SDS011;11075;47.944;11.776;2023-08-12T06:40:04;3.05;;;2.78;;
21825;SDS011;11075;47.944;11.776;2023-08-12T06:42:31;4.00;;;3.05;;
21825;SDS011;11075;47.944;11.776;2023-08-12T06:44:58;6.18;;;2.78;;
21825;SDS011;11075;47.944;11.776;2023-08-12T06:47:26;4.68;;;3.22;;
21825;SDS011;11075;47.944;11.776;2023-08-12T06:49:54;4.20;;;2.92;;
21825;SDS011;11075;47.944;11.776;2023-08-12T06:52:21;3.45;;;2.70;;
21825;SDS011;11075;47.944;11.776;2023-08-12T06:54:49;5.03;;;2.55;;
21825;SDS011;11075;47.944;11.776;2023-08-12T06:57:15;4.82;;;2.72;;
21825;SDS011;11075;47.944;11.776;2023-08-12T06:59:42;3.15;;;2.88;;
21825;SDS011;11075;47.944;11.776;2023-08-12T07:02:09;5.55;;;2.65;;
21825;SDS011;11075;47.944;11.776;2023-08-12T07:04:36;2.63;;;2.42;;
21825;SDS011;11075;47.944;11.776;2023-08-12T07:07:03;4.50;;;2.55;;
21825;SDS011;11075;47.944;11.776;2023-08-12T07:09:30;3.03;;;2.58;;
21825;SDS011;11075;47.944;11.776;2023-08-12T07:11:57;4.97;;;2.13;;
21825;SDS011;11075;47.944;11.776;2023-08-12T07:14:24;5.30;;;2.53;;
21825;SDS011;11075;47.944;11.776;2023-08-12T07:16:51;3.88;;;2.53;;
21825;SDS011;11075;47.944;11.776;2023-08-12T07:19:17;2.45;;;2.17;;
21825;SDS011;11075;47.944;11.776;2023-08-12T07:21:44;3.25;;;2.42;;
21825;SDS011;11075;47.944;11.776;2023-08-12T07:24:11;6.47;;;2.40;;
21825;SDS011;11075;47.944;11.776;2023-08-12T07:26:38;4.78;;;2.30;;
21825;SDS011;11075;47.944;11.776;2023-08-12T07:29:04;3.33;;;2.78;;
21825;SDS011;11075;47.944;11.776;2023-08-12T07:31:31;3.83;;;2.03;;
21825;SDS011;11075;47.944;11.776;2023-08-12T07:33:59;2.95;;;2.20;;
21825;SDS011;11075;47.944;11.776;2023-08-12T07:36:31;2.30;;;2.10;;
21825;SDS011;11075;47.944;11.776;2023-08-12T07:38:59;2.75;;;2.13;;
21825;SDS011;11075;47.944;11.776;2023-08-12T07:41:26;1.92;;;1.83;;
21825;SDS011;11075;47.944;11.776;2023-08-12T07:43:54;2.95;;;2.00;;
21825;SDS011;11075;47.944;11.776;2023-08-12T07:46:21;3.10;;;1.95;;
21825;SDS011;11075;47.944;11.776;2023-08-12T07:48:48;3.65;;;2.03;;
21825;SDS011;11075;47.944;11.776;2023-08-12T07:51:15;2.00;;;1.90;;
21825;SDS011;11075;47.944;11.776;2023-08-12T07:53:42;2.28;;;2.08;;
21825;SDS011;11075;47.944;11.776;2023-08-12T07:56:09;2.40;;;2.20;;
21825;SDS011;11075;47.944;11.776;2023-08-12T07:58:36;2.65;;;2.03;;
21825;SDS011;11075;47.944;11.776;2023-08-12T08:01:03;2.00;;;1.85;;
21825;SDS011;11075;47.944;11.776;2023-08-12T08:03:31;2.72;;;2.30;;
21825;SDS011;11075;47.944;11.776;2023-08-12T08:05:58;2.03;;;1.92;;
21825;SDS011;11075;47.944;11.776;2023-08-12T08:08:25;2.45;;;2.10;;
21825;SDS011;11075;47.944;11.776;2023-08-12T08:10:52;2.85;;;2.20;;
21825;SDS011;11075;47.944;11.776;2023-08-12T08:13:18;3.10;;;2.30;;
21825;SDS011;11075;47.944;11.776;2023-08-12T08:15:45;2.33;;;2.05;;
21825;SDS011;11075;47.944;11.776;2023-08-12T08:18:13;2.42;;;2.22;;
21825;SDS011;11075;47.944;11.776;2023-08-12T08:20:41;2.40;;;2.20;;
21825;SDS011;11075;47.944;11.776;2023-08-12T08:23:11;3.08;;;2.00;;
21825;SDS011;11075;47.944;11.776;2023-08-12T08:25:38;3.65;;;2.63;;
21825;SDS011;11075;47.944;11.776;2023-08-12T08:28:05;4.93;;;2.28;;
21825;SDS011;11075;47.944;11.776;2023-08-12T08:30:32;2.45;;;2.25;;
21825;SDS011;11075;47.944;11.776;2023-08-12T08:32:59;2.20;;;2.00;;
21825;SDS011;11075;47.944;11.776;2023-08-12T08:35:26;3.53;;;2.40;;
21825;SDS011;11075;47.944;11.776;2023-08-12T08:37:53;2.03;;;1.88;;
21825;SDS011;11075;47.944;11.776;2023-08-12T08:40:20;2.08;;;1.95;;
21825;SDS011;11075;47.944;11.776;2023-08-12T08:42:47;3.17;;;2.42;;
21825;SDS011;11075;47.944;11.776;2023-08-12T08:45:20;6.32;;;2.20;;
21825;SDS011;11075;47.944;11.776;2023-08-12T08:47:49;4.57;;;2.20;;
21825;SDS011;11075;47.944;11.776;2023-08-12T08:50:18;3.47;;;1.90;;
21825;SDS011;11075;47.944;11.776;2023-08-12T08:52:45;2.72;;;2.10;;
21825;SDS011;11075;47.944;11.776;2023-08-12T08:55:12;3.70;;;2.20;;
21825;SDS011;11075;47.944;11.776;2023-08-12T08:57:41;2.47;;;2.28;;
21825;SDS011;11075;47.944;11.776;2023-08-12T09:00:14;2.05;;;1.88;;
21825;SDS011;11075;47.944;11.776;2023-08-12T09:02:47;3.05;;;2.10;;
21825;SDS011;11075;47.944;11.776;2023-08-12T09:05:17;2.28;;;2.00;;
21825;SDS011;11075;47.944;11.776;2023-08-12T09:07:45;4.38;;;2.10;;
21825;SDS011;11075;47.944;11.776;2023-08-12T09:10:14;3.22;;;1.70;;
21825;SDS011;11075;47.944;11.776;2023-08-12T09:12:42;3.95;;;1.70;;
21825;SDS011;11075;47.944;11.776;2023-08-12T09:15:10;2.78;;;1.95;;
21825;SDS011;11075;47.944;11.776;2023-08-12T09:17:37;6.25;;;1.95;;
21825;SDS011;11075;47.944;11.776;2023-08-12T09:20:05;1.73;;;1.63;;
21825;SDS011;11075;47.944;11.776;2023-08-12T09:22:41;1.90;;;1.80;;
21825;SDS011;11075;47.944;11.776;2023-08-12T09:25:09;1.70;;;1.60;;
21825;SDS011;11075;47.944;11.776;2023-08-12T09:27:37;3.08;;;1.80;;
21825;SDS011;11075;47.944;11.776;2023-08-12T09:30:07;4.18;;;1.83;;
21825;SDS011;11075;47.944;11.776;2023-08-12T09:32:35;2.67;;;2.00;;
21825;SDS011;11075;47.944;11.776;2023-08-12T09:35:05;2.67;;;1.90;;
21825;SDS011;11075;47.944;11.776;2023-08-12T09:37:32;3.78;;;1.75;;
21825;SDS011;11075;47.944;11.776;2023-08-12T09:39:59;2.92;;;1.70;;
21825;SDS011;11075;47.944;11.776;2023-08-12T09:42:27;3.55;;;1.90;;
21825;SDS011;11075;47.944;11.776;2023-08-12T09:44:56;3.30;;;2.30;;
21825;SDS011;11075;47.944;11.776;2023-08-12T09:47:24;3.80;;;2.10;;
21825;SDS011;11075;47.944;11.776;2023-08-12T09:49:53;2.80;;;1.92;;
21825;SDS011;11075;47.944;11.776;2023-08-12T09:52:19;3.15;;;2.05;;
21825;SDS011;11075;47.944;11.776;2023-08-12T09:54:47;1.90;;;1.80;;
21825;SDS011;11075;47.944;11.776;2023-08-12T09:57:14;2.38;;;1.80;;
21825;SDS011;11075;47.944;11.776;2023-08-12T09:59:44;3.08;;;2.78;;
21825;SDS011;11075;47.944;11.776;2023-08-12T10:02:14;1.77;;;1.67;;
21825;SDS011;11075;47.944;11.776;2023-08-12T10:04:45;2.63;;;1.63;;
21825;SDS011;11075;47.944;11.776;2023-08-12T10:07:14;2.20;;;1.80;;
21825;SDS011;11075;47.944;11.776;2023-08-12T10:09:41;2.85;;;1.65;;
21825;SDS011;11075;47.944;11.776;2023-08-12T10:12:09;2.40;;;1.80;;
21825;SDS011;11075;47.944;11.776;2023-08-12T10:14:37;3.50;;;2.03;;
21825;SDS011;11075;47.944;11.776;2023-08-12T10:17:05;2.60;;;2.40;;
21825;SDS011;11075;47.944;11.776;2023-08-12T10:19:32;1.80;;;1.70;;
21825;SDS011;11075;47.944;11.776;2023-08-12T10:22:00;2.38;;;2.10;;
21825;SDS011;11075;47.944;11.776;2023-08-12T10:24:30;2.58;;;2.20;;
21825;SDS011;11075;47.944;11.776;2023-08-12T10:27:00;3.92;;;2.08;;
21825;SDS011;11075;47.944;11.776;2023-08-12T10:29:29;3.05;;;2.10;;
21825;SDS011;11075;47.944;11.776;2023-08-12T10:31:57;3.55;;;2.13;;
21825;SDS011;11075;47.944;11.776;2023-08-12T10:34:25;5.45;;;2.45;;
21825;SDS011;11075;47.944;11.776;2023-08-12T10:36:55;2.63;;;2.42;;
21825;SDS011;11075;47.944;11.776;2023-08-12T10:39:31;5.28;;;2.38;;
21825;SDS011;11075;47.944;11.776;2023-08-12T10:41:59;4.97;;;2.00;;
21825;SDS011;11075;47.944;11.776;2023-08-12T10:44:27;2.53;;;2.13;;
21825;SDS011;11075;47.944;11.776;2023-08-12T10:47:08;2.85;;;2.20;;
21825;SDS011;11075;47.944;11.776;2023-08-12T10:49:38;2.25;;;2.05;;
21825;SDS011;11075;47.944;11.776;2023-08-12T10:52:19;4.28;;;2.10;;
21825;SDS011;11075;47.944;11.776;2023-08-12T10:54:54;6.45;;;2.40;;
21825;SDS011;11075;47.944;11.776;2023-08-12T10:57:36;2.13;;;1.98;;
21825;SDS011;11075;47.944;11.776;2023-08-12T11:00:10;2.05;;;1.95;;
21825;SDS011;11075;47.944;11.776;2023-08-12T11:02:40;3.97;;;2.28;;
21825;SDS011;11075;47.944;11.776;2023-08-12T11:05:12;2.35;;;2.15;;
21825;SDS011;11075;47.944;11.776;2023-08-12T11:10:22;2.38;;;2.17;;
21825;SDS011;11075;47.944;11.776;2023-08-12T11:15:19;3.25;;;1.88;;
21825;SDS011;11075;47.944;11.776;2023-08-12T11:18:10;2.80;;;1.92;;
21825;SDS011;11075;47.944;11.776;2023-08-12T11:20:39;2.92;;;1.90;;
21825;SDS011;11075;47.944;11.776;2023-08-12T11:23:07;2.47;;;2.00;;
21825;SDS011;11075;47.944;11.776;2023-08-12T11:25:36;2.08;;;1.77;;
21825;SDS011;11075;47.944;11.776;2023-08-12T11:28:06;2.05;;;1.85;;
21825;SDS011;11075;47.944;11.776;2023-08-12T11:30:34;3.97;;;1.95;;
21825;SDS011;11075;47.944;11.776;2023-08-12T11:33:01;5.43;;;2.00;;
21825;SDS011;11075;47.944;11.776;2023-08-12T11:35:30;2.15;;;2.00;;
21825;SDS011;11075;47.944;11.776;2023-08-12T11:37:57;2.40;;;2.20;;
21825;SDS011;11075;47.944;11.776;2023-08-12T11:40:26;2.33;;;1.80;;
21825;SDS011;11075;47.944;11.776;2023-08-12T11:42:54;10.07;;;2.22;;
21825;SDS011;11075;47.944;11.776;2023-08-12T11:45:23;3.50;;;2.00;;
21825;SDS011;11075;47.944;11.776;2023-08-12T11:47:52;5.38;;;2.20;;
21825;SDS011;11075;47.944;11.776;2023-08-12T11:50:24;3.40;;;2.30;;
21825;SDS011;11075;47.944;11.776;2023-08-12T11:52:53;2.33;;;2.10;;
21825;SDS011;11075;47.944;11.776;2023-08-12T11:55:21;3.35;;;2.25;;
21825;SDS011;11075;47.944;11.776;2023-08-12T11:57:50;2.45;;;2.17;;
21825;SDS011;11075;47.944;11.776;2023-08-12T12:00:17;2.63;;;1.95;;
21825;SDS011;11075;47.944;11.776;2023-08-12T12:02:53;2.20;;;1.73;;
21825;SDS011;11075;47.944;11.776;2023-08-12T12:05:22;2.85;;;2.22;;
21825;SDS011;11075;47.944;11.776;2023-08-12T12:07:52;2.03;;;1.83;;
21825;SDS011;11075;47.944;11.776;2023-08-12T12:10:30;4.50;;;2.03;;
21825;SDS011;11075;47.944;11.776;2023-08-12T12:13:02;4.00;;;1.88;;
21825;SDS011;11075;47.944;11.776;2023-08-12T12:15:31;3.10;;;2.30;;
21825;SDS011;11075;47.944;11.776;2023-08-12T12:18:08;2.20;;;2.00;;
21825;SDS011;11075;47.944;11.776;2023-08-12T12:20:36;2.15;;;2.03;;
21825;SDS011;11075;47.944;11.776;2023-08-12T12:23:09;2.92;;;1.60;;
21825;SDS011;11075;47.944;11.776;2023-08-12T12:25:36;3.83;;;1.90;;
21825;SDS011;11075;47.944;11.776;2023-08-12T12:28:04;1.90;;;1.70;;
21825;SDS011;11075;47.944;11.776;2023-08-12T12:30:31;2.15;;;1.83;;
21825;SDS011;11075;47.944;11.776;2023-08-12T12:32:57;4.75;;;2.15;;
21825;SDS011;11075;47.944;11.776;2023-08-12T12:35:25;1.98;;;1.75;;
21825;SDS011;11075;47.944;11.776;2023-08-12T12:37:53;3.25;;;2.10;;
21825;SDS011;11075;47.944;11.776;2023-08-12T12:40:20;2.28;;;1.80;;
21825;SDS011;11075;47.944;11.776;2023-08-12T12:42:46;2.45;;;2.20;;
21825;SDS011;11075;47.944;11.776;2023-08-12T12:45:13;2.50;;;1.92;;
21825;SDS011;11075;47.944;11.776;2023-08-12T12:47:40;2.80;;;2.05;;
21825;SDS011;11075;47.944;11.776;2023-08-12T12:50:07;2.53;;;1.70;;
21825;SDS011;11075;47.944;11.776;2023-08-12T12:52:34;2.63;;;1.60;;
21825;SDS011;11075;47.944;11.776;2023-08-12T12:55:01;3.35;;;1.90;;
21825;SDS011;11075;47.944;11.776;2023-08-12T12:57:30;4.78;;;1.90;;
21825;SDS011;11075;47.944;11.776;2023-08-12T12:59:57;3.30;;;1.83;;
21825;SDS011;11075;47.944;11.776;2023-08-12T13:02:24;3.70;;;1.88;;
21825;SDS011;11075;47.944;11.776;2023-08-12T13:04:51;2.53;;;2.22;;
21825;SDS011;11075;47.944;11.776;2023-08-12T13:07:18;3.17;;;1.80;;
21825;SDS011;11075;47.944;11.776;2023-08-12T13:09:45;2.72;;;2.10;;
21825;SDS011;11075;47.944;11.776;2023-08-12T13:12:11;2.50;;;1.85;;
21825;SDS011;11075;47.944;11.776;2023-08-12T13:14:39;5.13;;;2.20;;
21825;SDS011;11075;47.944;11.776;2023-08-12T13:17:06;3.78;;;2.40;;
21825;SDS011;11075;47.944;11.776;2023-08-12T13:19:32;4.18;;;2.05;;
21825;SDS011;11075;47.944;11.776;2023-08-12T13:21:59;2.67;;;1.83;;
21825;SDS011;11075;47.944;11.776;2023-08-12T13:24:28;2.13;;;1.90;;
21825;SDS011;11075;47.944;11.776;2023-08-12T13:26:56;4.57;;;1.90;;
21825;SDS011;11075;47.944;11.776;2023-08-12T13:29:25;3.58;;;1.90;;
21825;SDS011;11075;47.944;11.776;2023-08-12T13:31:52;2.33;;;2.00;;
21825;SDS011;11075;47.944;11.776;2023-08-12T13:34:19;2.75;;;1.90;;
21825;SDS011;11075;47.944;11.776;2023-08-12T13:36:46;4.97;;;2.03;;
21825;SDS011;11075;47.944;11.776;2023-08-12T13:39:13;2.70;;;2.47;;
21825;SDS011;11075;47.944;11.776;2023-08-12T13:41:40;2.72;;;2.00;;
21825;SDS011;11075;47.944;11.776;2023-08-12T13:44:07;2.45;;;2.10;;
21825;SDS011;11075;47.944;11.776;2023-08-12T13:46:34;2.88;;;2.10;;
21825;SDS011;11075;47.944;11.776;2023-08-12T13:49:01;3.13;;;1.65;;
21825;SDS011;11075;47.944;11.776;2023-08-12T13:51:28;3.40;;;2.03;;
21825;SDS011;11075;47.944;11.776;2023-08-12T13:53:55;8.25;;;2.42;;
21825;SDS011;11075;47.944;11.776;2023-08-12T13:56:22;3.58;;;2.15;;
21825;SDS011;11075;47.944;11.776;2023-08-12T13:58:49;4.45;;;2.05;;
21825;SDS011;11075;47.944;11.776;2023-08-12T14:01:15;6.18;;;2.38;;
21825;SDS011;11075;47.944;11.776;2023-08-12T14:03:42;2.60;;;2.40;;
21825;SDS011;11075;47.944;11.776;2023-08-12T14:06:09;2.50;;;2.25;;
21825;SDS011;11075;47.944;11.776;2023-08-12T14:08:36;2.72;;;1.98;;
21825;SDS011;11075;47.944;11.776;2023-08-12T14:11:03;3.38;;;2.17;;
21825;SDS011;11075;47.944;11.776;2023-08-12T14:13:30;3.30;;;2.35;;
21825;SDS011;11075;47.944;11.776;2023-08-12T14:15:57;5.65;;;2.40;;
21825;SDS011;11075;47.944;11.776;2023-08-12T14:18:23;8.30;;;2.80;;
21825;SDS011;11075;47.944;11.776;2023-08-12T14:20:50;2.22;;;2.00;;
21825;SDS011;11075;47.944;11.776;2023-08-12T14:23:17;2.78;;;2.50;;
21825;SDS011;11075;47.944;11.776;2023-08-12T14:25:44;4.07;;;2.67;;
21825;SDS011;11075;47.944;11.776;2023-08-12T14:28:11;2.97;;;2.30;;
21825;SDS011;11075;47.944;11.776;2023-08-12T14:30:38;3.15;;;2.53;;
21825;SDS011;11075;47.944;11.776;2023-08-12T14:33:05;2.47;;;2.28;;
21825;SDS011;11075;47.944;11.776;2023-08-12T14:35:36;5.00;;;2.38;;
21825;SDS011;11075;47.944;11.776;2023-08-12T14:38:03;8.75;;;2.60;;
21825;SDS011;11075;47.944;11.776;2023-08-12T14:40:30;5.50;;;2.50;;
21825;SDS011;11075;47.944;11.776;2023-08-12T14:42:57;2.85;;;2.60;;
21825;SDS011;11075;47.944;11.776;2023-08-12T14:45:24;12.27;;;2.55;;
21825;SDS011;11075;47.944;11.776;2023-08-12T14:47:51;4.55;;;2.47;;
21825;SDS011;11075;47.944;11.776;2023-08-12T14:50:17;2.72;;;2.38;;
21825;SDS011;11075;47.944;11.776;2023-08-12T14:52:44;3.42;;;2.65;;